sensor_id;sensor_type;location;lat;lon;timestamp;temperature;humidity
6439;DHT22;3252;52.540;13.290;2022-09-09T00:00:11;16.00;99.90
6439;DHT22;3252;52.540;13.290;2022-09-09T00:02:18;16.00;99.90
6439;DHT22;3252;52.540;13.290;2022-09-09T00:04:26;16.00;99.90
6439;DHT22;3252;52.540;13.290;2022-09-09T00:06:31;16.00;99.90
6439;DHT22;3252;52.540;13.290;2022-09-09T00:08:42;16.00;99.90
6439;DHT22;3252;52.540;13.290;2022-09-09T00:10:50;15.90;99.90
6439;DHT22;3252;52.540;13.290;2022-09-09T00:13:01;15.90;99.90
6439;DHT22;3252;52.540;13.290;2022-09-09T00:15:11;15.90;99.90
6439;DHT22;3252;52.540;13.290;2022-09-09T00:17:19;15.90;99.90
6439;DHT22;3252;52.540;13.290;2022-09-09T00:19:24;15.90;99.90
6439;DHT22;3252;52.540;13.290;2022-09-09T00:21:33;15.80;99.90
6439;DHT22;3252;52.540;13.290;2022-09-09T00:23:38;15.80;99.90
6439;DHT22;3252;52.540;13.290;2022-09-09T00:25:47;15.80;99.90
6439;DHT22;3252;52.540;13.290;2022-09-09T00:27:51;15.80;99.90
6439;DHT22;3252;52.540;13.290;2022-09-09T00:29:55;15.80;99.90
6439;DHT22;3252;52.540;13.290;2022-09-09T00:32:04;15.80;99.90
6439;DHT22;3252;52.540;13.290;2022-09-09T00:34:12;15.80;99.90
6439;DHT22;3252;52.540;13.290;2022-09-09T00:36:18;15.70;99.90
6439;DHT22;3252;52.540;13.290;2022-09-09T00:38:25;15.80;99.90
6439;DHT22;3252;52.540;13.290;2022-09-09T00:40:33;15.70;99.90
6439;DHT22;3252;52.540;13.290;2022-09-09T00:42:41;15.70;99.90
6439;DHT22;3252;52.540;13.290;2022-09-09T00:44:52;15.70;99.90
6439;DHT22;3252;52.540;13.290;2022-09-09T00:47:04;15.70;99.90
6439;DHT22;3252;52.540;13.290;2022-09-09T00:49:19;15.70;99.90
6439;DHT22;3252;52.540;13.290;2022-09-09T00:51:32;15.70;99.90
6439;DHT22;3252;52.540;13.290;2022-09-09T00:53:39;15.70;99.90
6439;DHT22;3252;52.540;13.290;2022-09-09T00:55:49;15.70;99.90
6439;DHT22;3252;52.540;13.290;2022-09-09T00:57:57;15.60;99.90
6439;DHT22;3252;52.540;13.290;2022-09-09T01:00:17;15.60;99.90
6439;DHT22;3252;52.540;13.290;2022-09-09T01:02:26;15.60;99.90
6439;DHT22;3252;52.540;13.290;2022-09-09T01:04:33;15.60;99.90
6439;DHT22;3252;52.540;13.290;2022-09-09T01:06:37;15.60;99.90
6439;DHT22;3252;52.540;13.290;2022-09-09T01:08:59;15.70;99.90
6439;DHT22;3252;52.540;13.290;2022-09-09T01:11:04;15.70;99.90
6439;DHT22;3252;52.540;13.290;2022-09-09T01:13:13;15.60;99.90
6439;DHT22;3252;52.540;13.290;2022-09-09T01:15:20;15.60;99.90
6439;DHT22;3252;52.540;13.290;2022-09-09T01:17:30;15.60;99.90
6439;DHT22;3252;52.540;13.290;2022-09-09T01:19:52;15.60;99.90
6439;DHT22;3252;52.540;13.290;2022-09-09T01:22:03;15.60;99.90
6439;DHT22;3252;52.540;13.290;2022-09-09T01:24:23;15.60;99.90
6439;DHT22;3252;52.540;13.290;2022-09-09T01:26:42;15.60;99.90
6439;DHT22;3252;52.540;13.290;2022-09-09T01:28:52;15.60;99.90
6439;DHT22;3252;52.540;13.290;2022-09-09T01:31:00;15.60;99.90
6439;DHT22;3252;52.540;13.290;2022-09-09T01:33:13;15.60;99.90
6439;DHT22;3252;52.540;13.290;2022-09-09T01:35:23;15.60;99.90
6439;DHT22;3252;52.540;13.290;2022-09-09T01:37:32;15.60;99.90
6439;DHT22;3252;52.540;13.290;2022-09-09T01:39:35;15.60;99.90
6439;DHT22;3252;52.540;13.290;2022-09-09T01:41:43;15.50;99.90
6439;DHT22;3252;52.540;13.290;2022-09-09T01:43:48;15.50;99.90
6439;DHT22;3252;52.540;13.290;2022-09-09T01:45:54;15.50;99.90
6439;DHT22;3252;52.540;13.290;2022-09-09T01:47:57;15.50;99.90
6439;DHT22;3252;52.540;13.290;2022-09-09T01:50:20;15.50;99.90
6439;DHT22;3252;52.540;13.290;2022-09-09T01:52:23;15.50;99.90
6439;DHT22;3252;52.540;13.290;2022-09-09T01:54:29;15.50;99.90
6439;DHT22;3252;52.540;13.290;2022-09-09T01:56:47;15.50;99.90
6439;DHT22;3252;52.540;13.290;2022-09-09T01:59:03;15.50;99.90
6439;DHT22;3252;52.540;13.290;2022-09-09T02:01:17;15.50;99.90
6439;DHT22;3252;52.540;13.290;2022-09-09T02:03:26;15.50;99.90
6439;DHT22;3252;52.540;13.290;2022-09-09T02:05:41;15.40;99.90
6439;DHT22;3252;52.540;13.290;2022-09-09T02:08:00;15.40;99.90
6439;DHT22;3252;52.540;13.290;2022-09-09T02:10:17;15.40;99.90
6439;DHT22;3252;52.540;13.290;2022-09-09T02:12:30;15.40;99.90
6439;DHT22;3252;52.540;13.290;2022-09-09T02:14:37;15.40;99.90
6439;DHT22;3252;52.540;13.290;2022-09-09T02:16:44;15.40;99.90
6439;DHT22;3252;52.540;13.290;2022-09-09T02:18:50;15.30;99.90
6439;DHT22;3252;52.540;13.290;2022-09-09T02:20:58;15.30;99.90
6439;DHT22;3252;52.540;13.290;2022-09-09T02:23:01;15.30;99.90
6439;DHT22;3252;52.540;13.290;2022-09-09T02:25:05;15.30;99.90
6439;DHT22;3252;52.540;13.290;2022-09-09T02:27:09;15.30;99.90
6439;DHT22;3252;52.540;13.290;2022-09-09T02:29:19;15.30;99.90
6439;DHT22;3252;52.540;13.290;2022-09-09T02:31:24;15.30;99.90
6439;DHT22;3252;52.540;13.290;2022-09-09T02:33:37;15.30;99.90
6439;DHT22;3252;52.540;13.290;2022-09-09T02:35:42;15.30;99.90
6439;DHT22;3252;52.540;13.290;2022-09-09T02:37:46;15.30;99.90
6439;DHT22;3252;52.540;13.290;2022-09-09T02:40:15;15.30;99.90
6439;DHT22;3252;52.540;13.290;2022-09-09T02:42:21;15.30;99.90
6439;DHT22;3252;52.540;13.290;2022-09-09T02:44:28;15.30;99.90
6439;DHT22;3252;52.540;13.290;2022-09-09T02:46:43;15.30;99.90
6439;DHT22;3252;52.540;13.290;2022-09-09T02:48:55;15.20;99.90
6439;DHT22;3252;52.540;13.290;2022-09-09T02:51:08;15.20;99.90
6439;DHT22;3252;52.540;13.290;2022-09-09T02:53:16;15.20;99.90
6439;DHT22;3252;52.540;13.290;2022-09-09T02:55:24;15.20;99.90
6439;DHT22;3252;52.540;13.290;2022-09-09T02:57:33;15.20;99.90
6439;DHT22;3252;52.540;13.290;2022-09-09T02:59:38;15.20;99.90
6439;DHT22;3252;52.540;13.290;2022-09-09T03:01:40;15.10;99.90
6439;DHT22;3252;52.540;13.290;2022-09-09T03:03:43;15.10;99.90
6439;DHT22;3252;52.540;13.290;2022-09-09T03:05:50;15.10;99.90
6439;DHT22;3252;52.540;13.290;2022-09-09T03:07:52;15.10;99.90
6439;DHT22;3252;52.540;13.290;2022-09-09T03:09:55;15.10;99.90
6439;DHT22;3252;52.540;13.290;2022-09-09T03:12:00;15.10;99.90
6439;DHT22;3252;52.540;13.290;2022-09-09T03:14:03;15.10;99.90
6439;DHT22;3252;52.540;13.290;2022-09-09T03:16:08;15.10;99.90
6439;DHT22;3252;52.540;13.290;2022-09-09T03:18:15;15.10;99.90
6439;DHT22;3252;52.540;13.290;2022-09-09T03:20:22;15.10;99.90
6439;DHT22;3252;52.540;13.290;2022-09-09T03:22:24;15.00;99.90
6439;DHT22;3252;52.540;13.290;2022-09-09T03:24:27;15.00;99.90
6439;DHT22;3252;52.540;13.290;2022-09-09T03:26:29;15.00;99.90
6439;DHT22;3252;52.540;13.290;2022-09-09T03:28:33;15.00;99.90
6439;DHT22;3252;52.540;13.290;2022-09-09T03:30:36;15.00;99.90
6439;DHT22;3252;52.540;13.290;2022-09-09T03:32:40;15.00;99.90
6439;DHT22;3252;52.540;13.290;2022-09-09T03:34:42;14.90;99.90
6439;DHT22;3252;52.540;13.290;2022-09-09T03:36:46;14.90;99.90
6439;DHT22;3252;52.540;13.290;2022-09-09T03:38:49;14.90;99.90
6439;DHT22;3252;52.540;13.290;2022-09-09T03:40:53;14.90;99.90
6439;DHT22;3252;52.540;13.290;2022-09-09T03:42:57;14.90;99.90
6439;DHT22;3252;52.540;13.290;2022-09-09T03:44:59;14.90;99.90
6439;DHT22;3252;52.540;13.290;2022-09-09T03:47:02;14.90;99.90
6439;DHT22;3252;52.540;13.290;2022-09-09T03:49:05;14.90;99.90
6439;DHT22;3252;52.540;13.290;2022-09-09T03:51:07;14.90;99.90
6439;DHT22;3252;52.540;13.290;2022-09-09T03:53:10;14.90;99.90
6439;DHT22;3252;52.540;13.290;2022-09-09T03:55:12;14.90;99.90
6439;DHT22;3252;52.540;13.290;2022-09-09T03:57:14;14.90;99.90
6439;DHT22;3252;52.540;13.290;2022-09-09T03:59:17;14.90;99.90
6439;DHT22;3252;52.540;13.290;2022-09-09T04:01:20;14.90;99.90
6439;DHT22;3252;52.540;13.290;2022-09-09T04:03:24;14.90;99.90
6439;DHT22;3252;52.540;13.290;2022-09-09T04:05:28;14.80;99.90
6439;DHT22;3252;52.540;13.290;2022-09-09T04:07:30;14.80;99.90
6439;DHT22;3252;52.540;13.290;2022-09-09T04:09:33;14.90;99.90
6439;DHT22;3252;52.540;13.290;2022-09-09T04:11:35;14.80;99.90
6439;DHT22;3252;52.540;13.290;2022-09-09T04:13:38;14.80;99.90
6439;DHT22;3252;52.540;13.290;2022-09-09T04:15:42;14.80;99.90
6439;DHT22;3252;52.540;13.290;2022-09-09T04:17:44;14.80;99.90
6439;DHT22;3252;52.540;13.290;2022-09-09T04:19:46;14.80;99.90
6439;DHT22;3252;52.540;13.290;2022-09-09T04:21:49;14.80;99.90
6439;DHT22;3252;52.540;13.290;2022-09-09T04:23:52;14.80;99.90
6439;DHT22;3252;52.540;13.290;2022-09-09T04:25:56;14.80;99.90
6439;DHT22;3252;52.540;13.290;2022-09-09T04:27:59;14.80;99.90
6439;DHT22;3252;52.540;13.290;2022-09-09T04:30:01;14.80;99.90
6439;DHT22;3252;52.540;13.290;2022-09-09T04:32:06;14.80;99.90
6439;DHT22;3252;52.540;13.290;2022-09-09T04:34:08;14.70;99.90
6439;DHT22;3252;52.540;13.290;2022-09-09T04:36:11;14.70;99.90
6439;DHT22;3252;52.540;13.290;2022-09-09T04:38:15;14.70;99.90
6439;DHT22;3252;52.540;13.290;2022-09-09T04:40:18;14.70;99.90
6439;DHT22;3252;52.540;13.290;2022-09-09T04:42:21;14.70;99.90
6439;DHT22;3252;52.540;13.290;2022-09-09T04:44:23;14.70;99.90
6439;DHT22;3252;52.540;13.290;2022-09-09T04:46:25;14.70;99.90
6439;DHT22;3252;52.540;13.290;2022-09-09T04:48:27;14.70;99.90
6439;DHT22;3252;52.540;13.290;2022-09-09T04:50:29;14.60;99.90
6439;DHT22;3252;52.540;13.290;2022-09-09T04:52:34;14.60;99.90
6439;DHT22;3252;52.540;13.290;2022-09-09T04:54:37;14.60;99.90
6439;DHT22;3252;52.540;13.290;2022-09-09T04:56:41;14.70;99.90
6439;DHT22;3252;52.540;13.290;2022-09-09T04:58:45;14.70;99.90
6439;DHT22;3252;52.540;13.290;2022-09-09T05:00:48;14.70;99.90
6439;DHT22;3252;52.540;13.290;2022-09-09T05:02:52;14.70;99.90
6439;DHT22;3252;52.540;13.290;2022-09-09T05:04:54;14.70;99.90
6439;DHT22;3252;52.540;13.290;2022-09-09T05:06:56;14.70;99.90
6439;DHT22;3252;52.540;13.290;2022-09-09T05:08:58;14.70;99.90
6439;DHT22;3252;52.540;13.290;2022-09-09T05:11:13;14.70;99.90
6439;DHT22;3252;52.540;13.290;2022-09-09T05:13:15;14.70;99.90
6439;DHT22;3252;52.540;13.290;2022-09-09T05:15:17;14.70;99.90
6439;DHT22;3252;52.540;13.290;2022-09-09T05:17:19;14.70;99.90
6439;DHT22;3252;52.540;13.290;2022-09-09T05:19:22;14.70;99.90
6439;DHT22;3252;52.540;13.290;2022-09-09T05:21:26;14.70;99.90
6439;DHT22;3252;52.540;13.290;2022-09-09T05:23:29;14.80;99.90
6439;DHT22;3252;52.540;13.290;2022-09-09T05:25:31;14.80;99.90
6439;DHT22;3252;52.540;13.290;2022-09-09T05:27:35;14.80;99.90
6439;DHT22;3252;52.540;13.290;2022-09-09T05:29:38;14.80;99.90
6439;DHT22;3252;52.540;13.290;2022-09-09T05:31:43;14.80;99.90
6439;DHT22;3252;52.540;13.290;2022-09-09T05:33:51;14.90;99.90
6439;DHT22;3252;52.540;13.290;2022-09-09T05:35:58;14.90;99.90
6439;DHT22;3252;52.540;13.290;2022-09-09T05:38:00;14.90;99.90
6439;DHT22;3252;52.540;13.290;2022-09-09T05:40:02;14.90;99.90
6439;DHT22;3252;52.540;13.290;2022-09-09T05:42:05;15.00;99.90
6439;DHT22;3252;52.540;13.290;2022-09-09T05:44:09;15.00;99.90
6439;DHT22;3252;52.540;13.290;2022-09-09T05:46:14;15.00;99.90
6439;DHT22;3252;52.540;13.290;2022-09-09T05:48:17;15.00;99.90
6439;DHT22;3252;52.540;13.290;2022-09-09T05:50:20;15.00;99.90
6439;DHT22;3252;52.540;13.290;2022-09-09T05:52:22;15.10;99.90
6439;DHT22;3252;52.540;13.290;2022-09-09T05:54:24;15.10;99.90
6439;DHT22;3252;52.540;13.290;2022-09-09T05:56:29;15.10;99.90
6439;DHT22;3252;52.540;13.290;2022-09-09T05:58:34;15.20;99.90
6439;DHT22;3252;52.540;13.290;2022-09-09T06:00:39;15.20;99.90
6439;DHT22;3252;52.540;13.290;2022-09-09T06:02:42;15.20;99.90
6439;DHT22;3252;52.540;13.290;2022-09-09T06:04:47;15.30;99.90
6439;DHT22;3252;52.540;13.290;2022-09-09T06:06:49;15.30;99.90
6439;DHT22;3252;52.540;13.290;2022-09-09T06:08:54;15.30;99.90
6439;DHT22;3252;52.540;13.290;2022-09-09T06:11:03;15.30;99.90
6439;DHT22;3252;52.540;13.290;2022-09-09T06:13:05;15.30;99.90
6439;DHT22;3252;52.540;13.290;2022-09-09T06:15:08;15.40;99.90
6439;DHT22;3252;52.540;13.290;2022-09-09T06:17:12;15.40;99.90
6439;DHT22;3252;52.540;13.290;2022-09-09T06:19:14;15.40;99.90
6439;DHT22;3252;52.540;13.290;2022-09-09T06:21:17;15.50;99.90
6439;DHT22;3252;52.540;13.290;2022-09-09T06:23:19;15.40;99.90
6439;DHT22;3252;52.540;13.290;2022-09-09T06:25:21;15.40;99.90
6439;DHT22;3252;52.540;13.290;2022-09-09T06:27:25;15.50;99.90
6439;DHT22;3252;52.540;13.290;2022-09-09T06:29:28;15.50;99.90
6439;DHT22;3252;52.540;13.290;2022-09-09T06:31:33;15.60;99.90
6439;DHT22;3252;52.540;13.290;2022-09-09T06:33:42;15.60;99.90
6439;DHT22;3252;52.540;13.290;2022-09-09T06:35:51;15.70;99.90
6439;DHT22;3252;52.540;13.290;2022-09-09T06:37:55;15.70;99.90
6439;DHT22;3252;52.540;13.290;2022-09-09T06:39:59;15.80;99.90
6439;DHT22;3252;52.540;13.290;2022-09-09T06:42:02;15.80;99.90
6439;DHT22;3252;52.540;13.290;2022-09-09T06:44:29;15.90;99.90
6439;DHT22;3252;52.540;13.290;2022-09-09T06:46:34;15.90;99.90
6439;DHT22;3252;52.540;13.290;2022-09-09T06:48:39;15.90;99.90
6439;DHT22;3252;52.540;13.290;2022-09-09T06:50:43;16.00;99.90
6439;DHT22;3252;52.540;13.290;2022-09-09T06:52:46;16.00;99.90
6439;DHT22;3252;52.540;13.290;2022-09-09T06:54:49;16.00;99.90
6439;DHT22;3252;52.540;13.290;2022-09-09T06:56:52;16.10;99.90
6439;DHT22;3252;52.540;13.290;2022-09-09T06:58:58;16.10;99.90
6439;DHT22;3252;52.540;13.290;2022-09-09T07:01:06;16.20;99.90
6439;DHT22;3252;52.540;13.290;2022-09-09T07:03:09;16.30;99.90
6439;DHT22;3252;52.540;13.290;2022-09-09T07:05:12;16.40;99.90
6439;DHT22;3252;52.540;13.290;2022-09-09T07:07:17;16.40;99.90
6439;DHT22;3252;52.540;13.290;2022-09-09T07:09:20;16.50;99.90
6439;DHT22;3252;52.540;13.290;2022-09-09T07:11:26;16.60;99.90
6439;DHT22;3252;52.540;13.290;2022-09-09T07:13:28;16.60;99.90
6439;DHT22;3252;52.540;13.290;2022-09-09T07:15:31;16.60;99.90
6439;DHT22;3252;52.540;13.290;2022-09-09T07:17:34;16.70;99.90
6439;DHT22;3252;52.540;13.290;2022-09-09T07:19:36;16.70;99.90
6439;DHT22;3252;52.540;13.290;2022-09-09T07:21:39;16.80;99.90
6439;DHT22;3252;52.540;13.290;2022-09-09T07:23:43;16.90;99.90
6439;DHT22;3252;52.540;13.290;2022-09-09T07:25:46;17.10;99.90
6439;DHT22;3252;52.540;13.290;2022-09-09T07:27:50;17.20;99.90
6439;DHT22;3252;52.540;13.290;2022-09-09T07:29:53;17.30;99.90
6439;DHT22;3252;52.540;13.290;2022-09-09T07:31:55;17.40;99.90
6439;DHT22;3252;52.540;13.290;2022-09-09T07:34:04;17.50;99.90
6439;DHT22;3252;52.540;13.290;2022-09-09T07:36:08;17.60;99.90
6439;DHT22;3252;52.540;13.290;2022-09-09T07:38:12;17.70;99.90
6439;DHT22;3252;52.540;13.290;2022-09-09T07:40:17;17.80;99.90
6439;DHT22;3252;52.540;13.290;2022-09-09T07:42:22;17.90;99.90
6439;DHT22;3252;52.540;13.290;2022-09-09T07:44:24;18.00;99.90
6439;DHT22;3252;52.540;13.290;2022-09-09T07:46:36;18.00;99.90
6439;DHT22;3252;52.540;13.290;2022-09-09T07:48:45;18.10;99.90
6439;DHT22;3252;52.540;13.290;2022-09-09T07:50:47;18.20;99.90
6439;DHT22;3252;52.540;13.290;2022-09-09T07:52:50;18.30;99.90
6439;DHT22;3252;52.540;13.290;2022-09-09T07:54:52;18.40;99.90
6439;DHT22;3252;52.540;13.290;2022-09-09T07:56:55;18.40;99.90
6439;DHT22;3252;52.540;13.290;2022-09-09T07:59:01;18.50;99.90
6439;DHT22;3252;52.540;13.290;2022-09-09T08:01:09;18.60;99.90
6439;DHT22;3252;52.540;13.290;2022-09-09T08:03:12;18.70;99.90
6439;DHT22;3252;52.540;13.290;2022-09-09T08:05:14;18.70;99.90
6439;DHT22;3252;52.540;13.290;2022-09-09T08:07:19;18.80;99.90
6439;DHT22;3252;52.540;13.290;2022-09-09T08:09:28;18.80;99.90
6439;DHT22;3252;52.540;13.290;2022-09-09T08:11:40;18.90;99.90
6439;DHT22;3252;52.540;13.290;2022-09-09T08:13:43;19.00;99.90
6439;DHT22;3252;52.540;13.290;2022-09-09T08:15:46;19.00;99.90
6439;DHT22;3252;52.540;13.290;2022-09-09T08:17:48;19.00;99.90
6439;DHT22;3252;52.540;13.290;2022-09-09T08:19:50;19.10;99.90
6439;DHT22;3252;52.540;13.290;2022-09-09T08:21:56;19.10;99.90
6439;DHT22;3252;52.540;13.290;2022-09-09T08:24:00;19.10;99.90
6439;DHT22;3252;52.540;13.290;2022-09-09T08:26:05;19.10;99.90
6439;DHT22;3252;52.540;13.290;2022-09-09T08:28:07;19.20;99.90
6439;DHT22;3252;52.540;13.290;2022-09-09T08:30:12;19.20;99.90
6439;DHT22;3252;52.540;13.290;2022-09-09T08:32:14;19.30;99.90
6439;DHT22;3252;52.540;13.290;2022-09-09T08:34:18;19.30;99.90
6439;DHT22;3252;52.540;13.290;2022-09-09T08:36:24;19.40;99.90
6439;DHT22;3252;52.540;13.290;2022-09-09T08:38:27;19.50;99.90
6439;DHT22;3252;52.540;13.290;2022-09-09T08:40:32;19.60;99.90
6439;DHT22;3252;52.540;13.290;2022-09-09T08:42:41;19.50;99.90
6439;DHT22;3252;52.540;13.290;2022-09-09T08:45:03;19.50;99.90
6439;DHT22;3252;52.540;13.290;2022-09-09T08:47:17;19.50;99.90
6439;DHT22;3252;52.540;13.290;2022-09-09T08:49:42;19.50;99.90
6439;DHT22;3252;52.540;13.290;2022-09-09T08:51:48;19.40;99.90
6439;DHT22;3252;52.540;13.290;2022-09-09T08:53:51;19.50;99.90
6439;DHT22;3252;52.540;13.290;2022-09-09T08:55:55;19.50;99.90
6439;DHT22;3252;52.540;13.290;2022-09-09T08:58:11;19.50;99.90
6439;DHT22;3252;52.540;13.290;2022-09-09T09:00:14;19.50;99.90
6439;DHT22;3252;52.540;13.290;2022-09-09T09:02:22;19.50;99.90
6439;DHT22;3252;52.540;13.290;2022-09-09T09:04:41;19.50;99.90
6439;DHT22;3252;52.540;13.290;2022-09-09T09:06:53;19.50;99.90
6439;DHT22;3252;52.540;13.290;2022-09-09T09:09:01;19.50;99.90
6439;DHT22;3252;52.540;13.290;2022-09-09T09:11:05;19.50;99.90
6439;DHT22;3252;52.540;13.290;2022-09-09T09:13:13;19.50;99.90
6439;DHT22;3252;52.540;13.290;2022-09-09T09:15:19;19.50;99.90
6439;DHT22;3252;52.540;13.290;2022-09-09T09:17:26;19.50;99.90
6439;DHT22;3252;52.540;13.290;2022-09-09T09:19:34;19.50;99.90
6439;DHT22;3252;52.540;13.290;2022-09-09T09:21:42;19.50;99.90
6439;DHT22;3252;52.540;13.290;2022-09-09T09:23:52;19.60;99.90
6439;DHT22;3252;52.540;13.290;2022-09-09T09:25:59;19.60;99.90
6439;DHT22;3252;52.540;13.290;2022-09-09T09:28:10;19.70;99.90
6439;DHT22;3252;52.540;13.290;2022-09-09T09:30:21;19.80;99.90
6439;DHT22;3252;52.540;13.290;2022-09-09T09:32:26;19.90;99.90
6439;DHT22;3252;52.540;13.290;2022-09-09T09:34:30;19.90;99.90
6439;DHT22;3252;52.540;13.290;2022-09-09T09:36:39;20.00;99.90
6439;DHT22;3252;52.540;13.290;2022-09-09T09:38:52;20.10;99.90
6439;DHT22;3252;52.540;13.290;2022-09-09T09:40:58;20.20;99.90
6439;DHT22;3252;52.540;13.290;2022-09-09T09:43:01;20.30;99.90
6439;DHT22;3252;52.540;13.290;2022-09-09T09:45:16;20.50;99.90
6439;DHT22;3252;52.540;13.290;2022-09-09T09:47:20;20.60;99.90
6439;DHT22;3252;52.540;13.290;2022-09-09T09:49:53;20.90;99.90
6439;DHT22;3252;52.540;13.290;2022-09-09T09:52:00;21.20;99.90
6439;DHT22;3252;52.540;13.290;2022-09-09T09:54:08;21.30;99.90
6439;DHT22;3252;52.540;13.290;2022-09-09T09:56:14;21.30;99.90
6439;DHT22;3252;52.540;13.290;2022-09-09T09:58:17;21.40;99.90
6439;DHT22;3252;52.540;13.290;2022-09-09T10:00:21;21.40;99.90
6439;DHT22;3252;52.540;13.290;2022-09-09T10:02:40;21.50;99.90
6439;DHT22;3252;52.540;13.290;2022-09-09T10:04:45;21.80;99.90
6439;DHT22;3252;52.540;13.290;2022-09-09T10:06:50;22.00;99.90
6439;DHT22;3252;52.540;13.290;2022-09-09T10:08:52;22.30;99.90
6439;DHT22;3252;52.540;13.290;2022-09-09T10:11:18;22.40;99.90
6439;DHT22;3252;52.540;13.290;2022-09-09T10:13:29;22.60;99.90
6439;DHT22;3252;52.540;13.290;2022-09-09T10:15:41;22.70;99.90
6439;DHT22;3252;52.540;13.290;2022-09-09T10:17:54;23.20;99.90
6439;DHT22;3252;52.540;13.290;2022-09-09T10:20:12;23.40;99.90
6439;DHT22;3252;52.540;13.290;2022-09-09T10:22:25;24.00;97.10
6439;DHT22;3252;52.540;13.290;2022-09-09T10:24:45;24.00;96.70
6439;DHT22;3252;52.540;13.290;2022-09-09T10:26:54;23.80;96.10
6439;DHT22;3252;52.540;13.290;2022-09-09T10:29:16;23.70;97.80
6439;DHT22;3252;52.540;13.290;2022-09-09T10:31:24;23.70;97.40
6439;DHT22;3252;52.540;13.290;2022-09-09T10:33:32;23.90;97.60
6439;DHT22;3252;52.540;13.290;2022-09-09T10:35:43;23.70;97.40
6439;DHT22;3252;52.540;13.290;2022-09-09T10:38:12;23.60;98.40
6439;DHT22;3252;52.540;13.290;2022-09-09T10:40:26;23.60;98.10
6439;DHT22;3252;52.540;13.290;2022-09-09T10:42:31;24.20;96.50
6439;DHT22;3252;52.540;13.290;2022-09-09T10:44:56;24.10;96.70
6439;DHT22;3252;52.540;13.290;2022-09-09T10:47:17;24.00;96.60
6439;DHT22;3252;52.540;13.290;2022-09-09T10:49:35;23.90;96.10
6439;DHT22;3252;52.540;13.290;2022-09-09T10:51:48;23.80;96.30
6439;DHT22;3252;52.540;13.290;2022-09-09T10:54:06;23.80;96.80
6439;DHT22;3252;52.540;13.290;2022-09-09T10:56:14;23.90;96.40
6439;DHT22;3252;52.540;13.290;2022-09-09T10:58:21;25.60;93.10
6439;DHT22;3252;52.540;13.290;2022-09-09T11:00:27;26.00;85.20
6439;DHT22;3252;52.540;13.290;2022-09-09T11:02:34;25.30;90.30
6439;DHT22;3252;52.540;13.290;2022-09-09T11:04:41;25.30;91.60
6439;DHT22;3252;52.540;13.290;2022-09-09T11:06:48;25.00;91.10
6439;DHT22;3252;52.540;13.290;2022-09-09T11:08:53;24.80;91.90
6439;DHT22;3252;52.540;13.290;2022-09-09T11:11:01;24.50;92.80
6439;DHT22;3252;52.540;13.290;2022-09-09T11:13:08;24.70;93.50
6439;DHT22;3252;52.540;13.290;2022-09-09T11:15:17;24.70;93.70
6439;DHT22;3252;52.540;13.290;2022-09-09T11:17:23;24.70;92.10
6439;DHT22;3252;52.540;13.290;2022-09-09T11:19:30;24.50;92.60
6439;DHT22;3252;52.540;13.290;2022-09-09T11:21:38;24.40;92.60
6439;DHT22;3252;52.540;13.290;2022-09-09T11:23:47;24.20;92.50
6439;DHT22;3252;52.540;13.290;2022-09-09T11:25:52;24.60;93.00
6439;DHT22;3252;52.540;13.290;2022-09-09T11:28:11;25.50;91.90
6439;DHT22;3252;52.540;13.290;2022-09-09T11:30:18;26.20;85.90
6439;DHT22;3252;52.540;13.290;2022-09-09T11:32:38;26.00;85.90
6439;DHT22;3252;52.540;13.290;2022-09-09T11:34:51;25.40;82.60
6439;DHT22;3252;52.540;13.290;2022-09-09T11:37:08;24.80;88.20
6439;DHT22;3252;52.540;13.290;2022-09-09T11:39:47;25.40;87.90
6439;DHT22;3252;52.540;13.290;2022-09-09T11:41:51;25.40;85.40
6439;DHT22;3252;52.540;13.290;2022-09-09T11:43:55;25.30;88.00
6439;DHT22;3252;52.540;13.290;2022-09-09T11:46:00;25.20;87.40
6439;DHT22;3252;52.540;13.290;2022-09-09T11:48:04;24.90;88.70
6439;DHT22;3252;52.540;13.290;2022-09-09T11:50:10;24.80;90.30
6439;DHT22;3252;52.540;13.290;2022-09-09T11:52:36;24.40;90.10
6439;DHT22;3252;52.540;13.290;2022-09-09T11:54:46;24.20;91.70
6439;DHT22;3252;52.540;13.290;2022-09-09T11:56:49;23.90;91.60
6439;DHT22;3252;52.540;13.290;2022-09-09T11:58:59;23.90;93.10
6439;DHT22;3252;52.540;13.290;2022-09-09T12:01:13;23.90;93.10
6439;DHT22;3252;52.540;13.290;2022-09-09T12:03:35;23.90;94.00
6439;DHT22;3252;52.540;13.290;2022-09-09T12:05:39;23.80;92.30
6439;DHT22;3252;52.540;13.290;2022-09-09T12:07:47;23.80;92.50
6439;DHT22;3252;52.540;13.290;2022-09-09T12:09:57;23.90;91.20
6439;DHT22;3252;52.540;13.290;2022-09-09T12:12:22;23.80;90.00
6439;DHT22;3252;52.540;13.290;2022-09-09T12:14:36;23.80;89.60
6439;DHT22;3252;52.540;13.290;2022-09-09T12:16:38;23.80;90.80
6439;DHT22;3252;52.540;13.290;2022-09-09T12:18:40;23.80;91.50
6439;DHT22;3252;52.540;13.290;2022-09-09T12:20:54;23.90;91.70
6439;DHT22;3252;52.540;13.290;2022-09-09T12:23:13;24.00;92.20
6439;DHT22;3252;52.540;13.290;2022-09-09T12:25:23;24.00;94.60
6439;DHT22;3252;52.540;13.290;2022-09-09T12:27:30;24.00;90.60
6439;DHT22;3252;52.540;13.290;2022-09-09T12:29:40;24.00;91.10
6439;DHT22;3252;52.540;13.290;2022-09-09T12:31:47;24.00;91.40
6439;DHT22;3252;52.540;13.290;2022-09-09T12:33:53;23.80;91.70
6439;DHT22;3252;52.540;13.290;2022-09-09T12:35:57;23.70;90.60
6439;DHT22;3252;52.540;13.290;2022-09-09T12:38:02;23.60;91.60
6439;DHT22;3252;52.540;13.290;2022-09-09T12:40:19;23.60;90.90
6439;DHT22;3252;52.540;13.290;2022-09-09T12:42:23;23.60;91.30
6439;DHT22;3252;52.540;13.290;2022-09-09T12:44:26;23.60;91.50
6439;DHT22;3252;52.540;13.290;2022-09-09T12:46:34;23.60;91.70
6439;DHT22;3252;52.540;13.290;2022-09-09T12:48:39;23.50;92.00
6439;DHT22;3252;52.540;13.290;2022-09-09T12:50:45;23.60;91.10
6439;DHT22;3252;52.540;13.290;2022-09-09T12:52:50;23.50;91.50
6439;DHT22;3252;52.540;13.290;2022-09-09T12:54:53;23.50;89.10
6439;DHT22;3252;52.540;13.290;2022-09-09T12:56:55;23.50;90.80
6439;DHT22;3252;52.540;13.290;2022-09-09T12:58:58;23.50;92.00
6439;DHT22;3252;52.540;13.290;2022-09-09T13:01:03;23.40;91.70
6439;DHT22;3252;52.540;13.290;2022-09-09T13:03:17;23.20;89.50
6439;DHT22;3252;52.540;13.290;2022-09-09T13:05:23;23.10;90.20
6439;DHT22;3252;52.540;13.290;2022-09-09T13:07:25;23.10;91.30
6439;DHT22;3252;52.540;13.290;2022-09-09T13:09:27;23.00;90.00
6439;DHT22;3252;52.540;13.290;2022-09-09T13:11:31;22.90;91.30
6439;DHT22;3252;52.540;13.290;2022-09-09T13:13:39;22.90;91.20
6439;DHT22;3252;52.540;13.290;2022-09-09T13:15:49;22.80;91.00
6439;DHT22;3252;52.540;13.290;2022-09-09T13:17:54;22.80;90.90
6439;DHT22;3252;52.540;13.290;2022-09-09T13:19:58;22.70;90.40
6439;DHT22;3252;52.540;13.290;2022-09-09T13:22:11;22.70;90.40
6439;DHT22;3252;52.540;13.290;2022-09-09T13:24:28;22.60;91.40
6439;DHT22;3252;52.540;13.290;2022-09-09T13:26:30;22.60;91.80
6439;DHT22;3252;52.540;13.290;2022-09-09T13:28:32;22.60;91.70
6439;DHT22;3252;52.540;13.290;2022-09-09T13:30:36;22.50;91.60
6439;DHT22;3252;52.540;13.290;2022-09-09T13:32:40;22.40;92.50
6439;DHT22;3252;52.540;13.290;2022-09-09T13:34:50;22.50;92.90